Dallas, Georgia
Current Conditions -  °F | °C
As of 9:15 PM on Friday 28 Nov 2014 (Local Time) from KPUJ Reporting Station
Clear Clear  
Wind Chill: 43°   Ceiling: Unl
Heat Index: 43°   Visibility: 10mi
Dew Point: 19°   Wind: 0mph
Humidity: 39%   Direction: NA
Pressure: 30.27"   Gusts: NA
Location:  33.92°N, 84.83°W
Report Text: KPUJ 290215Z AUTO 00000KT 10SM CLR 06/M07 A3027 RMK AO2
Loading
Personal Weather Stations






























Interactive Weather Map New forecast layout! Learn more

10-Day Weather Forecast

Advertisements
Track Severe Weather on mobile